createdAt,value
2023-05-09T00:03:59.344Z,2.33
2023-05-09T00:08:03.278Z,2.50
2023-05-09T00:12:06.738Z,2.53
2023-05-09T00:16:10.476Z,2.63
2023-05-09T00:20:13.357Z,2.47
2023-05-09T00:24:17.437Z,2.95
2023-05-09T00:28:20.054Z,3.42
2023-05-09T00:32:22.761Z,3.38
2023-05-09T00:36:25.533Z,2.72
2023-05-09T00:40:29.566Z,3.55
2023-05-09T00:44:32.213Z,4.18
2023-05-09T00:48:34.851Z,3.85
2023-05-09T00:52:38.167Z,3.40
2023-05-09T00:56:42.269Z,3.55
2023-05-09T01:00:44.875Z,3.70
2023-05-09T01:04:48.110Z,3.90
2023-05-09T01:08:59.866Z,3.67
2023-05-09T01:13:07.290Z,3.22
2023-05-09T01:17:17.296Z,3.75
2023-05-09T01:21:25.427Z,3.35
2023-05-09T01:25:39.052Z,3.58
2023-05-09T01:29:45.991Z,3.90
2023-05-09T01:33:57.698Z,3.17
2023-05-09T01:38:00.616Z,4.47
2023-05-09T01:42:05.716Z,3.50
2023-05-09T01:46:10.921Z,3.95
2023-05-09T01:50:13.791Z,4.18
2023-05-09T01:54:17.949Z,3.38
2023-05-09T01:58:22.259Z,3.95
2023-05-09T02:02:27.084Z,4.07
2023-05-09T02:06:31.168Z,4.07
2023-05-09T02:10:35.189Z,4.20
2023-05-09T02:14:37.852Z,4.28
2023-05-09T02:18:41.769Z,4.25
2023-05-09T02:22:45.239Z,4.03
2023-05-09T02:26:48.038Z,4.63
2023-05-09T02:30:53.242Z,4.45
2023-05-09T02:34:59.161Z,4.05
2023-05-09T02:39:02.258Z,3.95
2023-05-09T02:43:05.070Z,3.88
2023-05-09T02:47:08.458Z,4.20
2023-05-09T02:51:12.408Z,3.92
2023-05-09T02:55:15.242Z,4.55
2023-05-09T02:59:19.940Z,4.25
2023-05-09T03:03:23.467Z,4.38
2023-05-09T03:07:27.458Z,4.25
2023-05-09T03:11:30.758Z,4.63
2023-05-09T03:15:33.342Z,5.05
2023-05-09T03:19:35.984Z,4.43
2023-05-09T03:23:40.337Z,4.32
2023-05-09T03:27:42.923Z,4.50
2023-05-09T03:31:46.170Z,4.07
2023-05-09T03:35:48.846Z,4.68
2023-05-09T03:39:52.789Z,4.35
2023-05-09T03:43:55.429Z,4.68
2023-05-09T03:47:58.068Z,4.47
2023-05-09T03:52:00.687Z,4.97
2023-05-09T03:56:04.673Z,4.05
2023-05-09T04:00:10.385Z,3.45
2023-05-09T04:04:13.361Z,4.28
2023-05-09T04:08:16.341Z,3.88
2023-05-09T04:12:20.284Z,4.35
2023-05-09T04:16:22.948Z,3.75
2023-05-09T04:20:25.586Z,4.30
2023-05-09T04:24:28.183Z,4.32
2023-05-09T04:28:32.432Z,4.55
2023-05-09T04:32:35.862Z,4.03
2023-05-09T04:36:38.563Z,5.15
2023-05-09T04:40:41.132Z,4.03
2023-05-09T04:44:45.188Z,4.80
2023-05-09T04:48:47.789Z,4.88
2023-05-09T04:52:50.406Z,4.80
2023-05-09T04:56:53.264Z,4.43
2023-05-09T05:01:00.060Z,3.22
2023-05-09T05:05:11.635Z,3.40
2023-05-09T05:13:17.643Z,3.72
2023-05-09T05:17:21.940Z,2.97
2023-05-09T05:21:24.590Z,3.58
2023-05-09T05:25:27.447Z,2.75
2023-05-09T05:29:30.084Z,2.25
2023-05-09T05:33:34.064Z,2.78
2023-05-09T05:37:36.648Z,2.80
2023-05-09T05:41:39.267Z,2.60
2023-05-09T05:45:41.906Z,2.40
2023-05-09T05:49:46.602Z,2.53
2023-05-09T05:53:49.614Z,2.22
2023-05-09T05:57:52.649Z,2.80
2023-05-09T06:01:55.292Z,2.22
2023-05-09T06:05:59.310Z,2.25
2023-05-09T06:10:01.928Z,2.45
2023-05-09T06:14:04.597Z,2.38
2023-05-09T06:18:09.013Z,2.42
2023-05-09T06:22:13.038Z,2.03
2023-05-09T06:26:16.587Z,2.17
2023-05-09T06:30:26.200Z,2.40
2023-05-09T06:34:29.766Z,2.15
2023-05-09T06:38:35.596Z,2.00
2023-05-09T06:42:38.570Z,1.75
2023-05-09T06:46:41.679Z,2.33
2023-05-09T06:50:44.494Z,2.17
2023-05-09T06:54:48.528Z,1.92
2023-05-09T06:58:51.570Z,2.30
2023-05-09T07:02:54.201Z,1.90
2023-05-09T07:06:56.860Z,1.55
2023-05-09T07:11:00.817Z,2.10
2023-05-09T07:15:03.460Z,1.75
2023-05-09T07:19:06.133Z,2.13
2023-05-09T07:23:08.772Z,1.95
2023-05-09T07:27:12.712Z,2.03
2023-05-09T07:31:15.322Z,2.03
2023-05-09T07:35:18.544Z,2.08
2023-05-09T07:39:21.543Z,2.13
2023-05-09T07:43:25.521Z,2.28
2023-05-09T07:47:28.264Z,2.17
2023-05-09T07:51:32.090Z,2.42
2023-05-09T07:55:34.707Z,2.33
2023-05-09T07:59:38.691Z,2.50
2023-05-09T08:03:41.539Z,2.55
2023-05-09T08:07:44.535Z,2.55
2023-05-09T08:11:47.141Z,2.55
2023-05-09T08:15:51.235Z,2.30
2023-05-09T08:19:53.940Z,2.22
2023-05-09T08:23:56.972Z,2.40
2023-05-09T08:28:00.521Z,2.47
2023-05-09T08:32:05.544Z,2.17
2023-05-09T08:36:08.541Z,2.40
2023-05-09T08:40:11.797Z,2.58
2023-05-09T08:44:14.592Z,2.70
2023-05-09T08:48:19.250Z,2.25
2023-05-09T08:52:22.558Z,2.35
2023-05-09T08:56:26.541Z,2.03
2023-05-09T09:00:30.689Z,1.90
2023-05-09T09:04:34.689Z,2.58
2023-05-09T09:08:37.534Z,2.28
2023-05-09T09:12:41.773Z,2.25
2023-05-09T09:16:47.562Z,2.30
2023-05-09T09:20:56.534Z,2.35
2023-05-09T09:24:59.116Z,1.67
2023-05-09T09:29:01.909Z,2.20
2023-05-09T09:33:07.818Z,2.47
2023-05-09T09:37:23.507Z,1.83
2023-05-09T09:41:31.639Z,2.13
2023-05-09T09:45:34.300Z,1.73
2023-05-09T09:49:36.946Z,2.10
2023-05-09T09:53:44.888Z,1.70
2023-05-09T09:57:48.368Z,1.83
2023-05-09T10:01:56.011Z,1.90
2023-05-09T10:06:02.623Z,1.83
2023-05-09T10:10:07.727Z,2.08
2023-05-09T10:14:10.731Z,2.25
2023-05-09T10:18:19.787Z,2.10
2023-05-09T10:22:24.778Z,2.63
2023-05-09T10:26:36.550Z,2.78
2023-05-09T10:30:45.259Z,3.13
2023-05-09T10:34:52.384Z,2.60
2023-05-09T10:38:56.431Z,3.30
2023-05-09T10:43:00.412Z,2.40
2023-05-09T10:47:03.713Z,2.47
2023-05-09T10:51:08.482Z,2.80
2023-05-09T10:55:11.383Z,3.20
2023-05-09T10:59:41.295Z,2.78
2023-05-09T11:03:55.507Z,2.63
2023-05-09T11:08:19.150Z,3.38
2023-05-09T11:12:24.982Z,3.75
2023-05-09T11:16:29.028Z,3.40
2023-05-09T11:20:35.142Z,2.75
2023-05-09T11:24:39.479Z,2.58
2023-05-09T11:28:42.055Z,2.85
2023-05-09T11:32:48.039Z,3.35
2023-05-09T11:36:50.677Z,3.13
2023-05-09T11:40:56.014Z,2.83
2023-05-09T11:49:04.447Z,2.60
2023-05-09T11:53:08.527Z,3.53
2023-05-09T11:57:11.694Z,2.60
2023-05-09T12:01:14.396Z,3.28
2023-05-09T12:05:20.175Z,2.97
2023-05-09T12:09:22.959Z,3.13
2023-05-09T12:13:25.576Z,3.03
2023-05-09T12:17:28.316Z,3.05
2023-05-09T12:21:33.101Z,2.83
2023-05-09T12:25:35.843Z,2.95
2023-05-09T12:29:40.317Z,2.95
2023-05-09T12:33:43.186Z,3.45
2023-05-09T12:37:58.885Z,3.33
2023-05-09T12:42:02.319Z,3.42
2023-05-09T12:46:05.652Z,3.08
2023-05-09T12:50:11.559Z,2.80
2023-05-09T12:54:20.454Z,3.10
2023-05-09T12:58:23.104Z,3.05
2023-05-09T13:02:27.439Z,2.42
2023-05-09T13:06:30.836Z,2.17
2023-05-09T13:10:34.888Z,2.58
2023-05-09T13:14:38.451Z,2.80
2023-05-09T13:18:41.046Z,2.63
2023-05-09T13:22:44.812Z,2.28
2023-05-09T13:26:48.730Z,2.13
2023-05-09T13:30:51.490Z,1.92
2023-05-09T13:34:54.246Z,1.63
2023-05-09T13:38:57.396Z,2.25
2023-05-09T13:43:01.365Z,1.70
2023-05-09T13:47:04.162Z,2.05
2023-05-09T13:51:07.840Z,2.00
2023-05-09T13:55:11.006Z,2.22
2023-05-09T13:59:15.018Z,1.48
2023-05-09T14:03:17.788Z,1.88
2023-05-09T14:07:20.457Z,1.23
2023-05-09T14:11:23.490Z,1.58
2023-05-09T14:15:27.495Z,1.33
2023-05-09T14:19:30.302Z,1.27
2023-05-09T14:23:32.954Z,1.20
2023-05-09T14:27:36.923Z,1.58
2023-05-09T14:31:41.031Z,1.23
2023-05-09T14:35:43.680Z,1.27
2023-05-09T14:39:46.837Z,1.40
2023-05-09T14:43:49.696Z,1.33
2023-05-09T14:47:53.735Z,1.42
2023-05-09T14:51:56.411Z,1.20
2023-05-09T14:55:59.379Z,0.93
2023-05-09T15:00:13.066Z,1.20
2023-05-09T15:04:28.179Z,1.30
2023-05-09T15:08:30.930Z,1.20
2023-05-09T15:12:33.548Z,1.27
2023-05-09T15:16:36.234Z,1.10
2023-05-09T15:20:40.446Z,1.13
2023-05-09T15:24:44.236Z,1.23
2023-05-09T15:28:46.870Z,0.80
2023-05-09T15:32:49.543Z,1.40
2023-05-09T15:36:53.506Z,0.82
2023-05-09T15:40:56.632Z,1.23
2023-05-09T15:44:59.223Z,1.55
2023-05-09T15:49:01.851Z,1.13
2023-05-09T15:53:06.423Z,1.15
2023-05-09T15:57:10.675Z,1.42
2023-05-09T16:01:14.533Z,2.90
2023-05-09T16:05:17.367Z,0.75
2023-05-09T16:09:22.342Z,0.80
2023-05-09T16:13:25.041Z,1.50
2023-05-09T16:17:27.843Z,1.15
2023-05-09T16:21:32.967Z,1.05
2023-05-09T16:25:37.058Z,1.13
2023-05-09T16:29:40.344Z,1.33
2023-05-09T16:33:43.935Z,1.60
2023-05-09T16:37:46.688Z,3.67
2023-05-09T16:41:50.782Z,1.55
2023-05-09T16:45:54.385Z,1.48
2023-05-09T16:49:56.995Z,1.40
2023-05-09T16:53:59.612Z,1.50
2023-05-09T16:58:03.677Z,1.42
2023-05-09T17:02:06.520Z,1.50
2023-05-09T17:06:09.328Z,1.40
2023-05-09T17:10:12.458Z,2.00
2023-05-09T17:14:16.469Z,1.50
2023-05-09T17:18:29.138Z,1.73
2023-05-09T17:22:39.344Z,1.50
2023-05-09T17:26:41.948Z,1.48
2023-05-09T17:30:46.266Z,2.00
2023-05-09T17:34:48.889Z,1.60
2023-05-09T17:38:51.470Z,1.48
2023-05-09T17:42:54.171Z,1.50
2023-05-09T17:46:58.894Z,1.80
2023-05-09T17:51:01.596Z,1.67
2023-05-09T17:55:05.097Z,1.38
2023-05-09T17:59:07.990Z,1.33
2023-05-09T18:03:12.122Z,1.80
2023-05-09T18:07:15.063Z,1.73
2023-05-09T18:11:24.513Z,1.85
2023-05-09T18:15:27.512Z,1.60
2023-05-09T18:19:31.570Z,1.42
2023-05-09T18:23:34.245Z,1.58
2023-05-09T18:27:36.849Z,1.75
2023-05-09T18:31:41.441Z,1.95
2023-05-09T18:35:45.501Z,1.77
2023-05-09T18:39:48.882Z,1.70
2023-05-09T18:43:51.515Z,1.70
2023-05-09T18:47:54.173Z,1.25
2023-05-09T18:52:00.113Z,1.50
2023-05-09T18:56:02.795Z,1.55
2023-05-09T19:00:06.372Z,1.80
2023-05-09T19:04:09.133Z,2.10
2023-05-09T19:08:13.077Z,1.50
2023-05-09T19:12:16.401Z,1.88
2023-05-09T19:16:21.666Z,1.70
2023-05-09T19:20:25.047Z,1.73
2023-05-09T19:24:29.059Z,1.75
2023-05-09T19:28:31.686Z,1.88
2023-05-09T19:32:34.309Z,1.80
2023-05-09T19:36:37.416Z,1.90
2023-05-09T19:40:42.151Z,1.73
2023-05-09T19:44:45.250Z,1.48
2023-05-09T19:48:47.846Z,2.10
2023-05-09T19:52:50.687Z,1.90
2023-05-09T19:56:54.663Z,1.52
2023-05-09T20:00:57.277Z,1.83
2023-05-09T20:05:00.384Z,1.70
2023-05-09T20:09:03.001Z,2.15
2023-05-09T20:13:06.989Z,1.90
2023-05-09T20:17:09.804Z,1.75
2023-05-09T20:21:13.275Z,1.73
2023-05-09T20:25:15.968Z,1.70
2023-05-09T20:29:20.005Z,1.50
2023-05-09T20:33:22.655Z,1.67
2023-05-09T20:37:25.259Z,1.75
2023-05-09T20:41:27.991Z,2.00
2023-05-09T20:45:32.129Z,1.60
2023-05-09T20:49:34.773Z,1.80
2023-05-09T20:53:37.766Z,1.50
2023-05-09T20:57:40.449Z,2.03
2023-05-09T21:01:44.561Z,1.45
2023-05-09T21:05:47.158Z,1.85
2023-05-09T21:09:50.763Z,1.73
2023-05-09T21:13:53.365Z,1.55
2023-05-09T21:17:57.414Z,1.45
2023-05-09T21:22:00.127Z,1.75
2023-05-09T21:26:03.254Z,1.20
2023-05-09T21:30:07.172Z,1.48
2023-05-09T21:34:11.110Z,1.92
2023-05-09T21:38:13.961Z,1.58
2023-05-09T21:42:16.581Z,1.10
2023-05-09T21:46:19.247Z,1.33
2023-05-09T21:50:23.536Z,1.40
2023-05-09T21:54:26.185Z,1.67
2023-05-09T21:58:28.812Z,1.30
2023-05-09T22:02:31.757Z,1.58
2023-05-09T22:06:35.784Z,1.77
2023-05-09T22:10:38.698Z,1.65
2023-05-09T22:14:52.527Z,1.60
2023-05-09T22:18:55.863Z,1.42
2023-05-09T22:22:59.798Z,1.63
2023-05-09T22:27:02.483Z,1.60
2023-05-09T22:31:06.516Z,1.67
2023-05-09T22:35:09.955Z,1.73
2023-05-09T22:39:14.129Z,2.03
2023-05-09T22:43:16.788Z,1.77
2023-05-09T22:47:19.399Z,1.33
2023-05-09T22:51:22.717Z,1.35
2023-05-09T22:55:26.675Z,1.75
2023-05-09T22:59:29.250Z,1.70
2023-05-09T23:03:31.970Z,1.90
2023-05-09T23:07:34.580Z,1.63
2023-05-09T23:11:38.573Z,1.50
2023-05-09T23:15:41.203Z,1.30
2023-05-09T23:19:43.831Z,1.60
2023-05-09T23:23:46.584Z,1.80
2023-05-09T23:27:50.626Z,1.40
2023-05-09T23:31:53.241Z,1.30
2023-05-09T23:35:56.058Z,1.17
2023-05-09T23:39:58.985Z,1.35
2023-05-09T23:44:03.451Z,1.35
2023-05-09T23:48:07.191Z,1.63
2023-05-09T23:52:09.940Z,1.48
2023-05-09T23:56:12.565Z,1.58
